createdAt,value
2023-05-17T00:01:53.318Z,92.21
2023-05-17T00:04:20.008Z,94.46
2023-05-17T00:06:46.830Z,97.26
2023-05-17T00:09:13.747Z,100.00
2023-05-17T00:11:40.564Z,100.00
2023-05-17T00:14:07.105Z,100.00
2023-05-17T00:16:34.209Z,100.00
2023-05-17T00:19:00.917Z,100.00
2023-05-17T00:21:27.493Z,100.00
2023-05-17T00:23:54.022Z,100.00
2023-05-17T00:26:20.534Z,100.00
2023-05-17T00:28:47.021Z,100.00
2023-05-17T00:31:13.545Z,100.00
2023-05-17T00:33:40.071Z,100.00
2023-05-17T00:36:06.614Z,100.00
2023-05-17T00:38:33.086Z,100.00
2023-05-17T00:40:59.737Z,100.00
2023-05-17T00:43:26.413Z,100.00
2023-05-17T00:45:53.054Z,100.00
2023-05-17T00:48:21.324Z,100.00
2023-05-17T00:50:48.446Z,100.00
2023-05-17T00:53:16.325Z,100.00
2023-05-17T00:55:46.181Z,100.00
2023-05-17T00:58:13.654Z,100.00
2023-05-17T01:00:40.959Z,100.00
2023-05-17T01:03:08.177Z,100.00
2023-05-17T01:09:16.757Z,100.00
2023-05-17T01:12:15.001Z,100.00
2023-05-17T01:15:09.138Z,100.00
2023-05-17T01:17:49.302Z,100.00
2023-05-17T01:20:39.035Z,100.00
2023-05-17T01:23:31.437Z,100.00
2023-05-17T01:26:24.437Z,100.00
2023-05-17T01:28:54.608Z,100.00
2023-05-17T01:31:22.362Z,100.00
2023-05-17T01:33:49.252Z,100.00
2023-05-17T01:36:16.251Z,100.00
2023-05-17T01:38:42.763Z,100.00
2023-05-17T01:41:24.395Z,100.00
2023-05-17T01:44:09.810Z,100.00
2023-05-17T01:46:41.730Z,100.00
2023-05-17T01:49:23.350Z,100.00
2023-05-17T01:52:03.305Z,100.00
2023-05-17T01:54:39.190Z,100.00
2023-05-17T01:57:08.209Z,100.00
2023-05-17T01:59:38.064Z,100.00
2023-05-17T02:02:09.090Z,100.00
2023-05-17T02:04:36.462Z,100.00
2023-05-17T02:07:03.929Z,100.00
2023-05-17T02:09:30.921Z,100.00
2023-05-17T02:11:57.504Z,100.00
2023-05-17T02:14:24.074Z,100.00
2023-05-17T02:16:50.698Z,100.00
2023-05-17T02:19:17.353Z,100.00
2023-05-17T02:21:44.012Z,100.00
2023-05-17T02:24:10.570Z,100.00
2023-05-17T02:26:37.358Z,100.00
2023-05-17T02:29:04.220Z,100.00
2023-05-17T02:31:30.744Z,100.00
2023-05-17T02:33:57.399Z,100.00
2023-05-17T02:36:23.964Z,100.00
2023-05-17T02:38:50.705Z,100.00
2023-05-17T02:41:17.272Z,100.00
2023-05-17T02:43:43.945Z,100.00
2023-05-17T02:46:10.576Z,100.00
2023-05-17T02:48:37.120Z,100.00
2023-05-17T02:51:03.700Z,100.00
2023-05-17T02:53:30.200Z,100.00
2023-05-17T02:55:59.389Z,100.00
2023-05-17T02:58:26.373Z,100.00
2023-05-17T03:00:52.844Z,100.00
2023-05-17T03:03:19.640Z,100.00
2023-05-17T03:05:46.214Z,100.00
2023-05-17T03:08:12.757Z,100.00
2023-05-17T03:10:39.269Z,100.00
2023-05-17T03:13:05.741Z,100.00
2023-05-17T03:15:32.252Z,100.00
2023-05-17T03:17:58.849Z,100.00
2023-05-17T03:20:25.465Z,100.00
2023-05-17T03:22:51.971Z,100.00
2023-05-17T03:25:18.620Z,100.00
2023-05-17T03:27:45.222Z,100.00
2023-05-17T03:30:12.151Z,100.00
2023-05-17T03:32:41.807Z,100.00
2023-05-17T03:35:08.997Z,100.00
2023-05-17T03:37:35.643Z,100.00
2023-05-17T03:40:02.269Z,100.00
2023-05-17T03:42:29.097Z,100.00
2023-05-17T03:44:55.652Z,100.00
2023-05-17T03:47:25.435Z,100.00
2023-05-17T03:49:51.947Z,100.00
2023-05-17T03:52:18.523Z,100.00
2023-05-17T03:54:46.843Z,100.00
2023-05-17T03:57:14.610Z,100.00
2023-05-17T03:59:41.081Z,100.00
2023-05-17T04:02:07.580Z,100.00
2023-05-17T04:04:34.087Z,100.00
2023-05-17T04:07:00.679Z,100.00
2023-05-17T04:09:27.237Z,100.00
2023-05-17T04:11:53.843Z,100.00
2023-05-17T04:14:20.498Z,100.00
2023-05-17T04:16:47.037Z,100.00
2023-05-17T04:19:13.555Z,100.00
2023-05-17T04:21:40.153Z,100.00
2023-05-17T04:24:07.701Z,100.00
2023-05-17T04:26:34.512Z,100.00
2023-05-17T04:29:01.571Z,100.00
2023-05-17T04:31:28.092Z,100.00
2023-05-17T04:33:54.680Z,100.00
2023-05-17T04:36:21.204Z,100.00
2023-05-17T04:38:47.972Z,100.00
2023-05-17T04:41:14.488Z,100.00
2023-05-17T04:43:42.016Z,100.00
2023-05-17T04:46:08.786Z,100.00
2023-05-17T04:48:35.592Z,100.00
2023-05-17T04:51:04.509Z,100.00
2023-05-17T04:53:31.477Z,100.00
2023-05-17T04:55:58.474Z,100.00
2023-05-17T04:58:25.090Z,100.00
2023-05-17T05:00:52.677Z,100.00
2023-05-17T05:03:19.267Z,100.00
2023-05-17T05:05:45.921Z,100.00
2023-05-17T05:08:12.472Z,100.00
2023-05-17T05:10:38.997Z,100.00
2023-05-17T05:13:06.224Z,100.00
2023-05-17T05:15:33.022Z,100.00
2023-05-17T05:17:59.608Z,100.00
2023-05-17T05:20:27.972Z,100.00
2023-05-17T05:22:54.947Z,100.00
2023-05-17T05:25:21.508Z,100.00
2023-05-17T05:27:48.059Z,100.00
2023-05-17T05:30:22.067Z,100.00
2023-05-17T05:32:50.056Z,100.00
2023-05-17T05:35:17.278Z,100.00
2023-05-17T05:37:44.697Z,100.00
2023-05-17T05:40:11.924Z,100.00
2023-05-17T05:42:38.483Z,100.00
2023-05-17T05:45:05.421Z,100.00
2023-05-17T05:47:32.065Z,100.00
2023-05-17T05:49:58.539Z,100.00
2023-05-17T05:52:25.073Z,100.00
2023-05-17T05:54:51.792Z,100.00
2023-05-17T05:57:18.426Z,100.00
2023-05-17T05:59:45.014Z,100.00
2023-05-17T06:02:11.655Z,100.00
2023-05-17T06:04:45.089Z,100.00
2023-05-17T06:07:13.416Z,100.00
2023-05-17T06:09:40.246Z,100.00
2023-05-17T06:12:06.950Z,100.00
2023-05-17T06:14:33.681Z,100.00
2023-05-17T06:17:00.221Z,100.00
2023-05-17T06:19:26.957Z,100.00
2023-05-17T06:21:53.738Z,100.00
2023-05-17T06:24:20.497Z,100.00
2023-05-17T06:26:49.735Z,100.00
2023-05-17T06:29:16.302Z,100.00
2023-05-17T06:31:43.026Z,100.00
2023-05-17T06:34:09.696Z,100.00
2023-05-17T06:36:38.436Z,100.00
2023-05-17T06:39:05.546Z,100.00
2023-05-17T06:41:32.237Z,100.00
2023-05-17T06:43:58.703Z,98.19
2023-05-17T06:46:28.137Z,99.71
2023-05-17T06:48:54.705Z,96.16
2023-05-17T06:51:21.430Z,96.92
2023-05-17T06:53:48.250Z,97.46
2023-05-17T06:56:14.833Z,100.00
2023-05-17T06:58:41.514Z,96.09
2023-05-17T07:01:08.197Z,92.88
2023-05-17T07:03:35.795Z,94.33
2023-05-17T07:06:02.560Z,92.34
2023-05-17T07:08:29.364Z,86.63
2023-05-17T07:10:56.044Z,87.25
2023-05-17T07:13:22.563Z,82.37
2023-05-17T07:15:49.113Z,78.93
2023-05-17T07:18:16.639Z,74.60
2023-05-17T07:20:43.324Z,71.54
2023-05-17T07:23:09.790Z,68.49
2023-05-17T07:25:39.065Z,66.80
2023-05-17T07:28:05.841Z,65.56
2023-05-17T07:30:34.762Z,61.83
2023-05-17T07:33:01.580Z,60.11
2023-05-17T07:35:28.294Z,61.50
2023-05-17T07:37:55.199Z,59.22
2023-05-17T07:40:22.053Z,58.58
2023-05-17T07:42:53.474Z,58.35
2023-05-17T07:45:19.998Z,57.87
2023-05-17T07:47:46.740Z,56.65
2023-05-17T07:50:13.763Z,54.53
2023-05-17T07:52:40.389Z,52.31
2023-05-17T07:55:07.872Z,50.02
2023-05-17T07:57:34.392Z,49.12
2023-05-17T08:00:00.953Z,51.21
2023-05-17T08:02:27.576Z,51.53
2023-05-17T08:04:54.263Z,48.61
2023-05-17T08:07:21.297Z,46.27
2023-05-17T08:09:47.829Z,45.13
2023-05-17T08:12:14.525Z,46.48
2023-05-17T08:14:41.071Z,45.32
2023-05-17T08:17:07.643Z,45.44
2023-05-17T08:19:34.438Z,44.65
2023-05-17T08:22:01.089Z,42.71
2023-05-17T08:24:27.762Z,42.31
2023-05-17T08:26:54.369Z,42.04
2023-05-17T08:29:21.288Z,41.09
2023-05-17T08:31:48.073Z,41.02
2023-05-17T08:34:14.940Z,39.75
2023-05-17T08:36:42.775Z,39.12
2023-05-17T08:39:09.606Z,38.65
2023-05-17T08:41:38.842Z,38.80
2023-05-17T08:44:06.489Z,38.06
2023-05-17T08:46:36.910Z,37.89
2023-05-17T08:49:06.144Z,36.32
2023-05-17T08:51:32.982Z,35.62
2023-05-17T08:54:00.189Z,36.58
2023-05-17T08:56:28.913Z,36.36
2023-05-17T08:58:57.863Z,35.12
2023-05-17T09:01:26.889Z,34.35
2023-05-17T09:03:55.107Z,34.08
2023-05-17T09:06:23.299Z,34.67
2023-05-17T09:08:55.136Z,34.28
2023-05-17T09:11:29.281Z,32.57
2023-05-17T09:14:00.936Z,33.63
2023-05-17T09:16:33.596Z,33.06
2023-05-17T09:19:00.546Z,33.64
2023-05-17T09:21:28.562Z,33.94
2023-05-17T09:24:05.504Z,35.08
2023-05-17T09:26:55.072Z,35.46
2023-05-17T09:29:22.937Z,34.28
2023-05-17T09:31:50.286Z,33.60
2023-05-17T09:34:19.595Z,32.65
2023-05-17T09:36:46.164Z,31.51
2023-05-17T09:39:14.794Z,31.85
2023-05-17T09:41:46.745Z,30.91
2023-05-17T09:44:14.761Z,30.81
2023-05-17T09:46:47.261Z,30.45
2023-05-17T09:49:14.932Z,31.25
2023-05-17T09:51:43.878Z,31.14
2023-05-17T09:54:11.399Z,31.60
2023-05-17T09:56:38.392Z,31.28
2023-05-17T09:59:12.076Z,32.09
2023-05-17T10:01:41.591Z,30.39
2023-05-17T10:04:12.162Z,35.75
2023-05-17T10:09:13.808Z,32.60
2023-05-17T10:11:43.957Z,33.10
2023-05-17T10:14:13.209Z,35.66
2023-05-17T10:16:40.018Z,34.71
2023-05-17T10:19:07.585Z,34.74
2023-05-17T10:21:34.417Z,31.07
2023-05-17T10:24:02.748Z,29.23
2023-05-17T10:26:30.050Z,29.24
2023-05-17T10:29:01.391Z,29.49
2023-05-17T10:31:30.575Z,29.57
2023-05-17T10:33:58.929Z,29.16
2023-05-17T10:36:27.188Z,28.88
2023-05-17T10:38:54.267Z,29.87
2023-05-17T10:41:24.388Z,29.83
2023-05-17T10:43:52.794Z,30.47
2023-05-17T10:46:23.412Z,29.69
2023-05-17T10:48:54.165Z,30.25
2023-05-17T10:51:31.659Z,30.30
2023-05-17T10:54:18.713Z,31.47
2023-05-17T10:56:52.788Z,31.25
2023-05-17T10:59:19.796Z,31.13
2023-05-17T11:01:51.802Z,30.74
2023-05-17T11:04:25.780Z,31.32
2023-05-17T11:06:55.082Z,31.52
2023-05-17T11:09:24.147Z,31.51
2023-05-17T11:12:08.473Z,32.03
2023-05-17T11:14:46.298Z,32.30
2023-05-17T11:17:14.824Z,32.58
2023-05-17T11:20:11.658Z,31.74
2023-05-17T11:22:42.568Z,32.03
2023-05-17T11:25:12.250Z,32.30
2023-05-17T11:27:44.899Z,32.94
2023-05-17T11:30:27.049Z,31.90
2023-05-17T11:32:58.027Z,32.79
2023-05-17T11:35:32.409Z,32.74
2023-05-17T11:38:32.581Z,33.31
2023-05-17T11:41:26.460Z,32.77
2023-05-17T11:43:54.525Z,32.66
2023-05-17T11:46:22.713Z,32.49
2023-05-17T11:48:53.199Z,33.39
2023-05-17T11:51:22.581Z,34.06
2023-05-17T11:53:51.309Z,34.04
2023-05-17T11:56:19.297Z,34.77
2023-05-17T11:58:51.286Z,35.32
2023-05-17T12:01:17.794Z,35.65
2023-05-17T12:03:44.383Z,35.48
2023-05-17T12:06:17.426Z,36.20
2023-05-17T12:08:46.030Z,36.38
2023-05-17T12:11:15.401Z,35.29
2023-05-17T12:13:42.870Z,34.88
2023-05-17T12:16:17.559Z,34.57
2023-05-17T12:18:48.048Z,34.67
2023-05-17T12:21:16.011Z,35.24
2023-05-17T12:23:44.716Z,35.08
2023-05-17T12:26:16.262Z,35.37
2023-05-17T12:28:59.725Z,35.61
2023-05-17T12:31:34.919Z,34.75
2023-05-17T12:34:04.330Z,35.06
2023-05-17T12:36:33.469Z,35.53
2023-05-17T12:39:01.608Z,36.02
2023-05-17T12:41:29.629Z,36.50
2023-05-17T12:44:06.238Z,36.42
2023-05-17T12:46:40.244Z,36.18
2023-05-17T12:49:08.491Z,35.85
2023-05-17T12:51:45.391Z,36.61
2023-05-17T12:54:15.959Z,36.80
2023-05-17T12:56:46.570Z,36.13
2023-05-17T12:59:17.931Z,36.07
2023-05-17T13:01:56.462Z,36.47
2023-05-17T13:04:34.326Z,36.06
2023-05-17T13:07:03.387Z,35.61
2023-05-17T13:09:31.518Z,35.99
2023-05-17T13:12:04.786Z,35.85
2023-05-17T13:14:44.479Z,35.75
2023-05-17T13:17:15.410Z,36.27
2023-05-17T13:19:42.283Z,36.47
2023-05-17T13:22:09.108Z,37.01
2023-05-17T13:24:37.766Z,36.85
2023-05-17T13:27:05.745Z,36.63
2023-05-17T13:29:39.395Z,37.20
2023-05-17T13:32:08.754Z,37.60
2023-05-17T13:34:36.314Z,38.18
2023-05-17T13:37:02.874Z,38.41
2023-05-17T13:39:29.816Z,38.03
2023-05-17T13:41:56.544Z,37.97
2023-05-17T13:44:23.099Z,38.01
2023-05-17T13:46:49.636Z,38.58
2023-05-17T13:49:17.284Z,38.51
2023-05-17T13:51:44.338Z,38.10
2023-05-17T13:54:11.600Z,38.55
2023-05-17T13:56:38.215Z,38.80
2023-05-17T13:59:04.681Z,38.48
2023-05-17T14:01:31.256Z,37.73
2023-05-17T14:03:57.879Z,38.08
2023-05-17T14:06:24.604Z,38.81
2023-05-17T14:08:53.205Z,39.10
2023-05-17T14:11:19.701Z,38.93
2023-05-17T14:13:46.269Z,38.40
2023-05-17T14:16:14.501Z,38.91
2023-05-17T14:18:41.198Z,38.31
2023-05-17T14:21:08.299Z,38.26
2023-05-17T14:23:35.405Z,37.80
2023-05-17T14:26:05.060Z,37.23
2023-05-17T14:28:31.891Z,36.80
2023-05-17T14:30:58.598Z,37.02
2023-05-17T14:33:26.874Z,37.17
2023-05-17T14:35:53.596Z,37.46
2023-05-17T14:38:22.322Z,37.66
2023-05-17T14:40:48.890Z,37.72
2023-05-17T14:43:15.371Z,37.55
2023-05-17T14:45:41.850Z,38.06
2023-05-17T14:48:08.602Z,37.42
2023-05-17T14:50:35.149Z,37.78
2023-05-17T14:53:01.728Z,38.07
2023-05-17T14:55:28.489Z,38.20
2023-05-17T14:57:57.717Z,37.93
2023-05-17T15:00:24.731Z,38.16
2023-05-17T15:02:51.242Z,38.34
2023-05-17T15:05:17.932Z,38.71
2023-05-17T15:07:44.527Z,38.69
2023-05-17T15:10:12.988Z,39.33
2023-05-17T15:12:39.753Z,38.81
2023-05-17T15:15:07.049Z,38.98
2023-05-17T15:17:33.872Z,39.28
2023-05-17T15:20:00.601Z,38.90
2023-05-17T15:22:27.179Z,38.53
2023-05-17T15:24:54.358Z,39.45
2023-05-17T15:27:21.473Z,38.39
2023-05-17T15:29:48.601Z,38.29
2023-05-17T15:32:15.102Z,38.36
2023-05-17T15:34:41.617Z,38.48
2023-05-17T15:37:08.133Z,39.08
2023-05-17T15:39:34.664Z,38.99
2023-05-17T15:42:01.169Z,39.61
2023-05-17T15:44:27.680Z,39.45
2023-05-17T15:46:54.180Z,38.93
2023-05-17T15:49:20.735Z,39.21
2023-05-17T15:51:47.358Z,38.61
2023-05-17T15:54:14.635Z,38.87
2023-05-17T15:56:42.021Z,38.62
2023-05-17T15:59:08.640Z,38.89
2023-05-17T16:01:35.595Z,39.01
2023-05-17T16:04:02.134Z,38.90
2023-05-17T16:06:34.735Z,38.88
2023-05-17T16:09:02.226Z,38.52
2023-05-17T16:11:28.992Z,38.64
2023-05-17T16:13:55.557Z,38.46
2023-05-17T16:16:22.078Z,38.40
2023-05-17T16:18:48.666Z,39.09
2023-05-17T16:21:15.242Z,38.86
2023-05-17T16:23:42.254Z,39.01
2023-05-17T16:26:08.952Z,39.30
2023-05-17T16:28:36.918Z,38.94
2023-05-17T16:31:04.741Z,39.29
2023-05-17T16:33:31.785Z,39.37
2023-05-17T16:35:58.923Z,39.83
2023-05-17T16:38:25.984Z,39.46
2023-05-17T16:40:52.572Z,39.74
2023-05-17T16:43:19.114Z,39.86
2023-05-17T16:45:46.409Z,39.82
2023-05-17T16:48:15.988Z,40.08
2023-05-17T16:50:42.586Z,40.04
2023-05-17T16:53:09.179Z,39.90
2023-05-17T16:55:36.608Z,40.08
2023-05-17T16:58:03.611Z,40.21
2023-05-17T17:00:30.627Z,39.38
2023-05-17T17:02:59.045Z,39.74
2023-05-17T17:05:27.646Z,39.69
2023-05-17T17:07:54.740Z,39.38
2023-05-17T17:10:21.325Z,39.75
2023-05-17T17:12:48.068Z,39.65
2023-05-17T17:15:15.535Z,39.76
2023-05-17T17:17:42.621Z,39.69
2023-05-17T17:20:09.785Z,39.92
2023-05-17T17:22:36.300Z,39.69
2023-05-17T17:25:02.970Z,39.97
2023-05-17T17:27:29.485Z,40.69
2023-05-17T17:29:56.006Z,40.12
2023-05-17T17:32:22.980Z,40.35
2023-05-17T17:34:49.509Z,40.51
2023-05-17T17:37:15.988Z,40.40
2023-05-17T17:39:42.596Z,40.87
2023-05-17T17:42:10.600Z,40.83
2023-05-17T17:44:37.252Z,40.94
2023-05-17T17:47:03.948Z,40.79
2023-05-17T17:49:30.493Z,40.92
2023-05-17T17:51:58.213Z,41.11
2023-05-17T17:54:24.881Z,41.05
2023-05-17T17:56:52.134Z,40.78
2023-05-17T17:59:18.579Z,41.09
2023-05-17T18:01:45.156Z,41.65
2023-05-17T18:04:13.528Z,41.57
2023-05-17T18:06:41.780Z,41.62
2023-05-17T18:09:08.694Z,41.44
2023-05-17T18:11:35.611Z,41.99
2023-05-17T18:14:04.640Z,42.06
2023-05-17T18:16:31.115Z,42.28
2023-05-17T18:18:57.737Z,42.37
2023-05-17T18:21:24.462Z,42.13
2023-05-17T18:23:51.121Z,42.43
2023-05-17T18:26:17.617Z,42.61
2023-05-17T18:28:44.088Z,42.52
2023-05-17T18:31:10.691Z,42.53
2023-05-17T18:33:37.410Z,42.73
2023-05-17T18:36:04.172Z,42.64
2023-05-17T18:38:30.708Z,43.13
2023-05-17T18:40:57.188Z,43.01
2023-05-17T18:43:23.677Z,43.23
2023-05-17T18:45:51.360Z,43.51
2023-05-17T18:48:18.116Z,43.46
2023-05-17T18:50:44.864Z,43.59
2023-05-17T18:53:12.829Z,43.57
2023-05-17T18:55:39.394Z,44.04
2023-05-17T18:58:05.929Z,43.63
2023-05-17T19:00:32.936Z,43.95
2023-05-17T19:02:59.706Z,44.14
2023-05-17T19:05:26.201Z,44.16
2023-05-17T19:07:52.682Z,44.49
2023-05-17T19:10:20.657Z,44.63
2023-05-17T19:12:47.211Z,44.79
2023-05-17T19:15:13.766Z,44.98
2023-05-17T19:17:40.436Z,44.67
2023-05-17T19:20:07.821Z,44.80
2023-05-17T19:22:35.747Z,45.06
2023-05-17T19:25:02.681Z,45.07
2023-05-17T19:27:29.489Z,45.13
2023-05-17T19:29:56.094Z,45.58
2023-05-17T19:32:22.947Z,45.61
2023-05-17T19:34:49.895Z,45.79
2023-05-17T19:37:16.574Z,45.63
2023-05-17T19:39:43.174Z,46.05
2023-05-17T19:42:09.734Z,46.25
2023-05-17T19:44:36.283Z,46.38
2023-05-17T19:47:02.806Z,46.58
2023-05-17T19:49:29.329Z,46.60
2023-05-17T19:52:00.468Z,46.64
2023-05-17T19:54:30.488Z,46.68
2023-05-17T19:56:58.112Z,46.88
2023-05-17T19:59:24.645Z,46.93
2023-05-17T20:01:51.318Z,46.99
2023-05-17T20:04:17.979Z,46.97
2023-05-17T20:06:44.723Z,47.08
2023-05-17T20:09:11.475Z,46.80
2023-05-17T20:11:38.145Z,47.09
2023-05-17T20:14:04.818Z,47.34
2023-05-17T20:16:31.532Z,47.42
2023-05-17T20:18:58.504Z,47.39
2023-05-17T20:21:26.317Z,47.69
2023-05-17T20:23:56.698Z,47.38
2023-05-17T20:26:27.001Z,47.58
2023-05-17T20:28:53.651Z,47.71
2023-05-17T20:31:20.584Z,47.72
2023-05-17T20:33:47.179Z,47.85
2023-05-17T20:36:14.608Z,48.40
2023-05-17T20:38:43.098Z,48.13
2023-05-17T20:41:11.023Z,48.63
2023-05-17T20:43:37.476Z,48.34
2023-05-17T20:46:07.544Z,48.53
2023-05-17T20:48:34.440Z,48.50
2023-05-17T20:51:02.138Z,48.84
2023-05-17T20:53:31.871Z,48.80
2023-05-17T20:55:58.831Z,49.04
2023-05-17T20:58:25.426Z,49.33
2023-05-17T21:00:52.970Z,49.44
2023-05-17T21:03:19.600Z,49.47
2023-05-17T21:05:46.516Z,49.75
2023-05-17T21:08:13.106Z,49.86
2023-05-17T21:10:42.665Z,49.99
2023-05-17T21:13:09.735Z,50.13
2023-05-17T21:15:36.880Z,50.33
2023-05-17T21:18:03.909Z,50.54
2023-05-17T21:20:30.887Z,50.83
2023-05-17T21:22:57.415Z,51.26
2023-05-17T21:25:24.015Z,51.60
2023-05-17T21:27:51.194Z,51.61
2023-05-17T21:30:17.722Z,51.88
2023-05-17T21:32:44.338Z,51.86
2023-05-17T21:35:10.913Z,52.59
2023-05-17T21:37:39.949Z,52.81
2023-05-17T21:40:07.553Z,52.94
2023-05-17T21:42:34.673Z,53.68
2023-05-17T21:45:01.558Z,53.76
2023-05-17T21:47:28.077Z,54.10
2023-05-17T21:49:54.789Z,54.25
2023-05-17T21:52:21.312Z,54.55
2023-05-17T21:54:47.933Z,54.81
2023-05-17T21:57:14.407Z,54.96
2023-05-17T21:59:40.968Z,55.16
2023-05-17T22:02:08.666Z,55.52
2023-05-17T22:04:35.223Z,55.53
2023-05-17T22:07:01.816Z,56.01
2023-05-17T22:09:28.282Z,56.46
2023-05-17T22:11:58.682Z,56.32
2023-05-17T22:14:25.945Z,56.45
2023-05-17T22:16:56.641Z,56.85
2023-05-17T22:19:23.512Z,57.38
2023-05-17T22:21:50.388Z,57.26
2023-05-17T22:24:17.140Z,57.40
2023-05-17T22:26:43.726Z,57.61
2023-05-17T22:29:10.246Z,57.56
2023-05-17T22:31:37.860Z,57.71
2023-05-17T22:34:04.995Z,58.30
2023-05-17T22:36:32.291Z,58.70
2023-05-17T22:38:59.136Z,58.78
2023-05-17T22:41:27.089Z,59.53
2023-05-17T22:43:53.895Z,59.47
2023-05-17T22:46:20.549Z,59.94
2023-05-17T22:48:47.100Z,59.98
2023-05-17T22:51:13.797Z,59.83
2023-05-17T22:53:40.425Z,59.85
2023-05-17T22:56:07.046Z,59.77
2023-05-17T22:58:33.635Z,60.05
2023-05-17T23:01:00.591Z,60.27
2023-05-17T23:03:27.133Z,60.63
2023-05-17T23:06:02.261Z,61.46
2023-05-17T23:08:30.092Z,61.92
2023-05-17T23:10:56.680Z,62.25
2023-05-17T23:13:23.257Z,62.85
2023-05-17T23:15:51.018Z,62.73
2023-05-17T23:18:18.134Z,62.64
2023-05-17T23:20:46.364Z,63.00
2023-05-17T23:23:16.228Z,62.97
2023-05-17T23:25:44.768Z,63.22
2023-05-17T23:28:11.514Z,63.17
2023-05-17T23:30:39.929Z,63.58
2023-05-17T23:33:06.885Z,63.98
2023-05-17T23:35:33.478Z,65.00
2023-05-17T23:38:00.254Z,65.89
2023-05-17T23:40:26.784Z,65.96
2023-05-17T23:42:53.295Z,66.64
2023-05-17T23:45:19.814Z,67.70
2023-05-17T23:47:47.617Z,69.15
2023-05-17T23:50:14.536Z,69.87
2023-05-17T23:52:41.076Z,69.84
2023-05-17T23:55:07.966Z,69.47
2023-05-17T23:57:35.381Z,69.22
